Аэропорт
Худжанд (UTDL)

 UTDL / LBD
ЗЦ Центральная Азия
Душанбе (UTDD)
Душанбе (UTDD)
 40.21540, 69.69470  / 1450 ft

 UTDL 291830Z 06002MPS 010V090 9999 NSC 26/12 Q1008 R26/CLRD70 NOSIG RMK QFE718/0958
 TAF UTDL 291500Z 2916/3004 VRB02MPS 9999 NSC BECMG 2918/2920 08005MPS
UTDL_aip_1705
показать схемы

2020 © VATRUS division (Privacy Policy)